Huvudsida
METAR-TAF:

METAR-TAF

Flygplatser :

Pajas Blancas Airport

Córdoba, Argentina

latitud: 31-19S, longitud: 064-13W, höjd: 484 m

Aktuellt väderrapport

Denna rapport gjordes för 59 minuter sedan, klockan 11:00 UTC
Vind 5 kt från nord/nordost
Temperatur 7°C
Fuktighet 87%
Tryck 1023 hPa
Sikt 10 km eller mer
Inga moln under 1 500 m eller inga cumulonimbus

METAR: SACO 241100Z 02005KT CAVOK 07/05 Q1023 NOSIG

Tid: 08:59 (11:59 UTC)

Väderprognos

Denna rapport gjordes för 59 minuter sedan, klockan 11:00 UTC
Prognos gäller från 24 kl. 12 UTC till 25 kl. 12 UTC
Vind 5 kt från nord/nordost
Sikt 10 km eller mer
Inga moln under 1 500 m eller inga cumulonimbus
Blir
från 24 kl. 13 UTC till 24 kl. 16 UTC
Vind 10 kt från nord/nordost
Sikt 10 km eller mer
Spridda moln på en höjd av 3000 ft

TAF: SACO 241100Z 2412/2512 02005KT CAVOK TX23/2418Z TN06/2510Z BECMG 2413/2416 02010KT 9999 SCT030

Aktuella väderrapporter och prognoser från 4000 flygplatser (METAR- och TAF-rapporter).

De tillgängliga stationerna syns som gula och röda prickar på kartan.

För musen över prickarna för att se namnen på stationerna.

Klicka sedan för att få väderrapporter och prognoser.

För att ändra kartan: Klicka på de gröna knapparna med ett svart kors på för att zooma in; den gröna knappen med ett streck på för att zooma ut; eller på de gröna pilarna för angränsande kartor.


METAR-TAF: